Weather History for KOOA - May, 2013

Change the Weather History Date:

Tuesday, May 28, 2013

  Actual Average (KOTM) Record (KOTM)
Temperature  
Mean Temperature 70 °F 65 °F  
Max Temperature 78 °F 76 °F 93 °F (2006)
Min Temperature 60 °F 55 °F 35 °F (1928)
Degree Days  
Heating Degree Days 0 3  
Month to date heating degree days 159  
Since 1 July heating degree days 6289  
Cooling Degree Days 4 3  
Month to date cooling degree days 45  
Year to date cooling degree days 56  
Growing Degree Days 20 (Base 50)    
Moisture  
Dew Point 62 °F    
Average Humidity 86    
Maximum Humidity 93    
Minimum Humidity 76    
Precipitation  
Precipitation 1.84 in 0.16 in 3.95 in (1908)
Month to date precipitation 4.22  
Year to date precipitation 12.04  
Sea Level Pressure  
Sea Level Pressure 29.73 in    
Wind  
Wind Speed 11 mph (South)    
Max Wind Speed 32 mph    
Max Gust Speed 41 mph    
Visibility 9 miles    
Events Rain    
T = Trace of Precipitation, MM = Missing Value Source: NWS Daily Summary

Daily Weather History Graph

Daily Weather History Graph

Search for Another Location

Airport or City:

Trip Planner

Search our weather history database for the weather conditions in past years. The results will help you decide how hot, cold, wet, or windy it might be!

Date:

Astronomy

May. 28, 2013 Rise Set
Actual Time 5:41 AM CDT 8:33 PM CDT
Civil Twilight 5:08 AM CDT 9:06 PM CDT
Nautical Twilight 4:27 AM CDT 9:47 PM CDT
Astronomical Twilight 3:39 AM CDT 10:35 PM CDT
Moon 11:56 PM CDT (5/28) 9:31 AM CDT (5/28)
Length of Visible Light 15h 57m
Length of Day
14h 52m
Waning Gibbous, 82% of the Moon is Illuminated
May 28
Waning Gibbous
May 31
Last Quarter
Jun 8
New
Jun 16
First Quarter
Jun 23
Full

Hourly Weather History & Observations

Time (CDT) Temp. Dew Point Humidity Pressure Visibility Wind Dir Wind Speed Gust Speed Precip Events Conditions
12:15 AM 65.3 °F 61.7 °F 88% 29.73 in 10.0 mi East 8.1 mph - N/A   Overcast
12:35 AM 65.3 °F 61.7 °F 88% 29.73 in 10.0 mi ESE 9.2 mph - N/A   Mostly Cloudy
12:55 AM 65.5 °F 61.7 °F 88% 29.73 in 10.0 mi SE 10.4 mph - N/A   Overcast
1:15 AM 65.1 °F 61.7 °F 89% 29.71 in 10.0 mi SE 6.9 mph - N/A   Overcast
1:35 AM 64.8 °F 61.7 °F 90% 29.71 in 10.0 mi SSE 6.9 mph - N/A Rain Light Rain
1:55 AM 64.8 °F 61.9 °F 90% 29.70 in 10.0 mi SSE 5.8 mph - N/A Rain Light Rain
2:15 AM 65.1 °F 62.2 °F 90% 29.70 in 10.0 mi South 6.9 mph - N/A Rain Rain
2:35 AM 66.2 °F 63.1 °F 90% 29.70 in 10.0 mi SSW 11.5 mph - 0.01 in Rain Light Rain
2:55 AM 66.6 °F 63.5 °F 90% 29.72 in 7.0 mi SSW 16.1 mph 19.6 mph 0.04 in Rain Rain
3:15 AM 66.7 °F 63.7 °F 90% 29.65 in 7.0 mi SSE 12.7 mph - 0.04 in Rain Rain
3:35 AM 66.4 °F 63.5 °F 90% 29.60 in 7.0 mi SE 15.0 mph - 0.05 in Rain Light Rain
3:55 AM 66.4 °F 63.5 °F 90% 29.63 in 10.0 mi SE 10.4 mph 13.8 mph 0.05 in   Scattered Clouds
4:15 AM 65.8 °F 63.5 °F 92% 29.66 in 7.0 mi WNW 5.8 mph 19.6 mph N/A   Scattered Clouds
4:35 AM 66.6 °F 63.3 °F 89% 29.68 in 10.0 mi Calm Calm - N/A   Overcast
4:55 AM 65.7 °F 62.8 °F 90% 29.70 in 7.0 mi South 8.1 mph - N/A   Overcast
5:15 AM 64.6 °F 61.0 °F 88% 29.72 in 10.0 mi South 18.4 mph - N/A   Overcast
5:35 AM 63.7 °F 60.1 °F 88% 29.70 in 10.0 mi SSW 15.0 mph - N/A   Mostly Cloudy
5:55 AM 63.1 °F 59.5 °F 88% 29.70 in 10.0 mi SSW 15.0 mph - N/A Rain Light Rain
6:15 AM 62.6 °F 59.5 °F 90% 29.70 in 10.0 mi South 6.9 mph - N/A Rain Light Rain
6:35 AM 62.2 °F 59.9 °F 92% 29.72 in 10.0 mi SSW 8.1 mph - N/A Rain Rain
6:55 AM 62.6 °F 60.1 °F 91% 29.72 in 3.0 mi SW 15.0 mph - 0.15 in Rain Heavy Rain
7:15 AM 63.7 °F 61.7 °F 93% 29.71 in 1.0 mi SW 12.7 mph 25.3 mph 0.58 in Rain Heavy Rain
7:35 AM 64.4 °F 61.7 °F 91% 29.71 in 10.0 mi SSW 11.5 mph - 0.71 in Rain Light Rain
7:55 AM 64.0 °F 61.0 °F 90% 29.72 in 10.0 mi SW 6.9 mph - 0.72 in   Overcast
8:15 AM 64.0 °F 61.0 °F 90% 29.72 in 10.0 mi South 8.1 mph - N/A   Overcast
8:35 AM 64.4 °F 61.2 °F 89% 29.71 in 10.0 mi SSE 11.5 mph - N/A   Overcast
8:55 AM 64.6 °F 61.3 °F 89% 29.71 in 10.0 mi South 11.5 mph - N/A   Overcast
9:15 AM 65.3 °F 62.1 °F 89% 29.71 in 10.0 mi South 11.5 mph - N/A   Overcast
9:35 AM 66.4 °F 63.3 °F 90% 29.70 in 10.0 mi South 13.8 mph - N/A   Overcast
9:55 AM 66.9 °F 63.5 °F 89% 29.70 in 10.0 mi South 13.8 mph - N/A   Overcast
10:15 AM 68.0 °F 64.6 °F 89% 29.70 in 10.0 mi South 13.8 mph - N/A   Overcast
10:35 AM 68.0 °F 64.4 °F 88% 29.70 in 10.0 mi South 15.0 mph - N/A   Overcast
10:55 AM 68.7 °F 64.9 °F 88% 29.70 in 10.0 mi SSW 11.5 mph - N/A   Overcast
11:15 AM 69.8 °F 65.7 °F 87% 29.70 in 10.0 mi SSW 11.5 mph - N/A   Overcast
11:35 AM 71.2 °F 66.7 °F 86% 29.70 in 10.0 mi SSW 11.5 mph - N/A   Overcast
11:55 AM 71.8 °F 66.9 °F 85% 29.70 in 10.0 mi SSW 10.4 mph - N/A   Overcast
12:15 PM 72.1 °F 67.1 °F 84% 29.71 in 10.0 mi SSW 9.2 mph - N/A   Overcast
12:35 PM 72.5 °F 67.3 °F 84% 29.72 in 10.0 mi SSW 6.9 mph - N/A   Overcast
12:55 PM 73.9 °F 68.4 °F 83% 29.72 in 10.0 mi SSW 8.1 mph - N/A   Overcast
1:15 PM 74.7 °F 68.4 °F 81% 29.71 in 10.0 mi SSW 12.7 mph - N/A   Overcast
1:35 PM 76.8 °F 69.6 °F 78% 29.72 in 10.0 mi SSW 12.7 mph 17.3 mph N/A   Mostly Cloudy
1:55 PM 77.0 °F 69.1 °F 76% 29.73 in 10.0 mi SSW 16.1 mph 20.7 mph N/A   Mostly Cloudy
2:15 PM 78.1 °F 70.2 °F 77% 29.72 in 10.0 mi SSW 15.0 mph 19.6 mph N/A   Mostly Cloudy
2:35 PM 78.3 °F 70.3 °F 77% 29.72 in 10.0 mi SSW 13.8 mph - N/A   Mostly Cloudy
2:55 PM 77.4 °F 69.3 °F 76% 29.71 in 10.0 mi SSW 16.1 mph 20.7 mph N/A   Mostly Cloudy
3:15 PM 77.0 °F 69.1 °F 76% 29.74 in 10.0 mi SW 11.5 mph 15.0 mph N/A   Mostly Cloudy
3:35 PM 74.8 °F 69.6 °F 84% 29.73 in 10.0 mi NW 6.9 mph - N/A   Mostly Cloudy
3:55 PM 74.1 °F 68.7 °F 83% 29.72 in 10.0 mi West 9.2 mph - N/A   Scattered Clouds
4:15 PM 72.0 °F 64.0 °F 76% 29.75 in 10.0 mi West 9.2 mph - 0.01 in Rain Heavy Rain
4:35 PM 67.6 °F 61.3 °F 80% 29.73 in 5.0 mi West 9.2 mph 23.0 mph 0.10 in Rain Heavy Rain
4:55 PM 65.3 °F 57.9 °F 77% 29.80 in 7.0 mi SW 23.0 mph 28.8 mph 0.17 in Rain Heavy Rain
5:15 PM 62.6 °F 57.0 °F 82% 29.72 in 3.0 mi South 11.5 mph 18.4 mph 0.05 in Rain Light Rain
5:35 PM 65.8 °F 58.1 °F 76% 29.69 in 10.0 mi SSE 4.6 mph 9.2 mph 0.05 in   Scattered Clouds
5:55 PM 66.4 °F 60.1 °F 80% 29.72 in 10.0 mi North 6.9 mph - 0.05 in   Clear
6:15 PM 65.8 °F 59.4 °F 80% 29.74 in 10.0 mi North 5.8 mph - N/A   Scattered Clouds
6:35 PM 65.3 °F 59.4 °F 81% 29.73 in 10.0 mi SE 3.5 mph - N/A Rain Light Rain
7:15 PM 63.5 °F 59.7 °F 87% 29.75 in 2.5 mi SSE 18.4 mph - 0.17 in Rain Heavy Rain
7:35 PM 62.4 °F 59.4 °F 90% 29.85 in 3.0 mi SW 16.1 mph - 0.28 in Rain Heavy Rain
7:55 PM 61.3 °F 59.0 °F 92% 29.78 in 3.0 mi SE 12.7 mph 18.4 mph 0.64 in Rain Rain
8:15 PM 63.7 °F 59.2 °F 85% 29.76 in 10.0 mi SSE 27.6 mph 33.4 mph N/A Rain Light Rain
8:35 PM 62.1 °F 58.5 °F 88% 29.77 in 10.0 mi South 19.6 mph 31.1 mph N/A   Overcast
8:55 PM 61.7 °F 58.3 °F 89% 29.85 in 10.0 mi SSW 32.2 mph 41.4 mph N/A   Overcast
9:15 PM 62.1 °F 58.3 °F 87% 29.82 in 10.0 mi South 18.4 mph - N/A Rain Light Rain
9:35 PM 62.6 °F 58.3 °F 86% 29.85 in 10.0 mi South 24.2 mph - N/A Rain Light Rain
9:55 PM 62.2 °F 58.1 °F 86% 29.77 in 10.0 mi ESE 25.3 mph 28.8 mph 0.02 in Rain Light Rain
10:15 PM 62.1 °F 58.3 °F 87% 29.79 in 10.0 mi East 18.4 mph - N/A Rain Light Rain
10:35 PM 62.8 °F 58.1 °F 85% 29.82 in 10.0 mi South 23.0 mph - N/A   Clear
10:55 PM 61.7 °F 58.1 °F 88% 29.81 in 10.0 mi SW 10.4 mph - N/A   Clear
11:15 PM 61.3 °F 57.9 °F 89% 29.81 in 10.0 mi SSW 10.4 mph - N/A   Clear
11:35 PM 61.0 °F 57.6 °F 88% 29.79 in 10.0 mi South 9.2 mph - N/A   Clear
11:55 PM 60.8 °F 57.6 °F 89% 29.80 in 10.0 mi South 10.4 mph - N/A   Clear